createdAt,value
2017-06-10T00:00:50.195Z,100860
2017-06-10T00:03:18.417Z,100856
2017-06-10T00:05:46.859Z,100863
2017-06-10T00:08:15.018Z,100857
2017-06-10T00:10:43.219Z,100867
2017-06-10T00:13:11.766Z,100868
2017-06-10T00:15:40.079Z,100865
2017-06-10T00:18:08.269Z,100870
2017-06-10T00:20:37.415Z,100871
2017-06-10T00:23:05.606Z,100864
2017-06-10T00:25:33.797Z,100867
2017-06-10T00:28:02.152Z,100871
2017-06-10T00:30:30.347Z,100874
2017-06-10T00:32:58.551Z,100868
2017-06-10T00:35:27.076Z,100873
2017-06-10T00:37:55.258Z,100864
2017-06-10T00:40:23.502Z,100868
2017-06-10T00:42:52.014Z,100871
2017-06-10T00:45:20.188Z,100875
2017-06-10T00:47:48.372Z,100877
2017-06-10T00:50:16.835Z,100884
2017-06-10T00:52:45.048Z,100876
2017-06-10T00:55:13.224Z,100883
2017-06-10T00:57:41.667Z,100894
2017-06-10T01:00:09.846Z,100895
2017-06-10T01:02:38.081Z,100899
2017-06-10T01:05:06.434Z,100902
2017-06-10T01:07:34.625Z,100895
2017-06-10T01:10:02.869Z,100894
2017-06-10T01:12:32.048Z,100894
2017-06-10T01:15:01.021Z,100895
2017-06-10T01:17:29.209Z,100898
2017-06-10T01:19:57.673Z,100906
2017-06-10T01:22:25.871Z,100902
2017-06-10T01:24:54.058Z,100904
2017-06-10T01:27:22.497Z,100906
2017-06-10T01:29:50.805Z,100905
2017-06-10T01:32:18.982Z,100911
2017-06-10T01:34:48.331Z,100922
2017-06-10T01:37:16.543Z,100921
2017-06-10T01:39:44.743Z,100917
2017-06-10T01:42:13.096Z,100925
2017-06-10T01:44:42.161Z,100927
2017-06-10T01:47:10.347Z,100930
2017-06-10T01:49:38.864Z,100928
2017-06-10T01:52:07.831Z,100932
2017-06-10T01:54:36.136Z,100943
2017-06-10T01:57:04.483Z,100936
2017-06-10T01:59:32.680Z,100941
2017-06-10T02:02:01.641Z,100940
2017-06-10T02:04:30.027Z,100936
2017-06-10T02:06:58.242Z,100937
2017-06-10T02:09:26.434Z,100943
2017-06-10T02:11:55.039Z,100943
2017-06-10T02:14:23.234Z,100947
2017-06-10T02:16:51.444Z,100945
2017-06-10T02:19:19.829Z,100941
2017-06-10T02:21:48.034Z,100939
2017-06-10T02:24:16.216Z,100935
2017-06-10T02:26:44.628Z,100939
2017-06-10T02:29:12.824Z,100930
2017-06-10T02:31:41.007Z,100931
2017-06-10T02:34:09.442Z,100933
2017-06-10T02:36:37.631Z,100936
2017-06-10T02:39:05.829Z,100937
2017-06-10T02:41:34.207Z,100940
2017-06-10T02:44:02.398Z,100947
2017-06-10T02:46:30.612Z,100947
2017-06-10T02:48:59.735Z,100951
2017-06-10T02:51:27.963Z,100954
2017-06-10T02:53:56.153Z,100953
2017-06-10T02:56:24.521Z,100962
2017-06-10T02:58:52.767Z,100965
2017-06-10T03:01:20.950Z,100979
2017-06-10T03:03:49.302Z,100984
2017-06-10T03:06:17.478Z,100984
2017-06-10T03:08:45.694Z,100990
2017-06-10T03:11:14.143Z,100994
2017-06-10T03:13:42.316Z,100988
2017-06-10T03:16:10.500Z,100998
2017-06-10T03:18:39.074Z,100997
2017-06-10T03:21:07.324Z,100997
2017-06-10T03:23:35.606Z,101003
2017-06-10T03:26:04.014Z,100998
2017-06-10T03:28:32.191Z,101001
2017-06-10T03:31:00.447Z,101010
2017-06-10T03:33:28.878Z,101003
2017-06-10T03:35:57.094Z,101007
2017-06-10T03:38:25.310Z,101014
2017-06-10T03:40:54.554Z,101016
2017-06-10T03:43:22.927Z,101018
2017-06-10T03:45:51.940Z,101021
2017-06-10T03:48:20.433Z,101019
2017-06-10T03:50:48.634Z,101023
2017-06-10T03:53:16.810Z,101026
2017-06-10T03:55:45.277Z,101020
2017-06-10T03:58:13.567Z,101020
2017-06-10T04:00:41.759Z,101031
2017-06-10T04:03:10.108Z,101028
2017-06-10T04:05:38.298Z,101025
2017-06-10T04:08:06.529Z,101029
2017-06-10T04:10:34.880Z,101043
2017-06-10T04:13:03.138Z,101037
2017-06-10T04:15:31.329Z,101035
2017-06-10T04:17:59.694Z,101038
2017-06-10T04:20:27.889Z,101034
2017-06-10T04:22:56.083Z,101029
2017-06-10T04:25:24.462Z,101041
2017-06-10T04:27:52.641Z,101040
2017-06-10T04:30:20.865Z,101037
2017-06-10T04:32:49.468Z,101047
2017-06-10T04:35:17.754Z,101049
2017-06-10T04:37:45.989Z,101050
2017-06-10T04:40:14.618Z,101044
2017-06-10T04:42:42.831Z,101049
2017-06-10T04:45:11.788Z,101051
2017-06-10T04:47:40.376Z,101052
2017-06-10T04:50:08.603Z,101057
2017-06-10T04:52:36.804Z,101051
2017-06-10T04:55:05.205Z,101060
2017-06-10T04:57:33.403Z,101065
2017-06-10T05:00:02.377Z,101071
2017-06-10T05:02:30.849Z,101066
2017-06-10T05:04:59.370Z,101072
2017-06-10T05:07:27.555Z,101070
2017-06-10T05:09:55.975Z,101064
2017-06-10T05:12:24.182Z,101074
2017-06-10T05:14:52.398Z,101069
2017-06-10T05:17:20.876Z,101072
2017-06-10T05:19:49.069Z,101067
2017-06-10T05:22:17.256Z,101065
2017-06-10T05:24:45.651Z,101070
2017-06-10T05:27:14.638Z,101067
2017-06-10T05:29:42.833Z,101065
2017-06-10T05:32:11.298Z,101070
2017-06-10T05:34:40.263Z,101071
2017-06-10T05:37:08.458Z,101069
2017-06-10T05:39:37.258Z,101071
2017-06-10T05:42:06.252Z,101072
2017-06-10T05:44:34.481Z,101073
2017-06-10T05:47:03.050Z,101073
2017-06-10T05:49:31.224Z,101072
2017-06-10T05:51:59.422Z,101075
2017-06-10T05:54:27.779Z,101072
2017-06-10T05:56:56.178Z,101070
2017-06-10T05:59:24.354Z,101068
2017-06-10T06:01:52.887Z,101074
2017-06-10T06:04:21.077Z,101074
2017-06-10T06:06:49.256Z,101084
2017-06-10T06:09:17.635Z,101076
2017-06-10T06:11:45.845Z,101087
2017-06-10T06:14:14.034Z,101093
2017-06-10T06:16:42.578Z,101078
2017-06-10T06:19:10.808Z,101091
2017-06-10T06:21:39.027Z,101095
2017-06-10T06:24:07.401Z,101092
2017-06-10T06:26:35.620Z,101112
2017-06-10T06:29:03.799Z,101105
2017-06-10T06:31:32.170Z,101112
2017-06-10T06:34:00.443Z,101119
2017-06-10T06:36:28.632Z,101111
2017-06-10T06:38:57.067Z,101113
2017-06-10T06:41:25.256Z,101117
2017-06-10T06:43:54.212Z,101122
2017-06-10T06:46:22.728Z,101123
2017-06-10T06:48:50.957Z,101128
2017-06-10T06:51:19.142Z,101126
2017-06-10T06:53:47.637Z,101125
2017-06-10T06:56:15.885Z,101131
2017-06-10T06:58:44.114Z,101127
2017-06-10T07:01:12.533Z,101140
2017-06-10T07:03:40.738Z,101138
2017-06-10T07:06:08.937Z,101140
2017-06-10T07:08:38.143Z,101146
2017-06-10T07:11:06.358Z,101149
2017-06-10T07:13:34.607Z,101148
2017-06-10T07:16:03.495Z,101157
2017-06-10T07:18:31.674Z,101162
2017-06-10T07:20:59.879Z,101164
2017-06-10T07:23:28.283Z,101163
2017-06-10T07:25:56.508Z,101163
2017-06-10T07:28:24.690Z,101164
2017-06-10T07:30:53.082Z,101167
2017-06-10T07:33:21.282Z,101157
2017-06-10T07:35:49.555Z,101155
2017-06-10T07:38:18.033Z,101165
2017-06-10T07:40:46.233Z,101168
2017-06-10T07:43:15.190Z,101177
2017-06-10T07:45:43.709Z,101182
2017-06-10T07:48:11.916Z,101177
2017-06-10T07:50:40.191Z,101176
2017-06-10T07:53:08.593Z,101182
2017-06-10T07:55:36.787Z,101193
2017-06-10T07:58:05.024Z,101197
2017-06-10T08:00:33.419Z,101197
2017-06-10T08:03:01.616Z,101192
2017-06-10T08:05:29.828Z,101199
2017-06-10T08:07:58.362Z,101200
2017-06-10T08:10:26.585Z,101201
2017-06-10T08:12:54.785Z,101197
2017-06-10T08:15:23.185Z,101201
2017-06-10T08:17:51.369Z,101201
2017-06-10T08:20:19.590Z,101200
2017-06-10T08:22:48.078Z,101198
2017-06-10T08:25:16.351Z,101208
2017-06-10T08:27:44.581Z,101215
2017-06-10T08:30:13.123Z,101211
2017-06-10T08:32:41.308Z,101207
2017-06-10T08:35:09.514Z,101215
2017-06-10T08:37:37.970Z,101223
2017-06-10T08:40:06.209Z,101216
2017-06-10T08:42:34.470Z,101220
2017-06-10T08:45:02.845Z,101221
2017-06-10T08:47:31.063Z,101214
2017-06-10T08:49:59.296Z,101211
2017-06-10T08:52:27.718Z,101209
2017-06-10T08:54:55.981Z,101200
2017-06-10T08:57:24.201Z,101202
2017-06-10T08:59:52.606Z,101208
2017-06-10T09:02:20.795Z,101207
2017-06-10T09:04:48.992Z,101209
2017-06-10T09:07:17.590Z,101201
2017-06-10T09:09:45.867Z,101201
2017-06-10T09:12:14.063Z,101202
2017-06-10T09:14:42.524Z,101207
2017-06-10T09:17:11.540Z,101215
2017-06-10T09:19:39.723Z,101225
2017-06-10T09:22:08.222Z,101216
2017-06-10T09:24:36.442Z,101223
2017-06-10T09:27:04.719Z,101220
2017-06-10T09:29:33.133Z,101223
2017-06-10T09:34:36.086Z,101227
2017-06-10T09:37:04.266Z,101222
2017-06-10T09:39:32.548Z,101226
2017-06-10T09:42:00.930Z,101229
2017-06-10T09:44:29.134Z,101233
2017-06-10T09:46:57.326Z,101235
2017-06-10T09:49:25.835Z,101218
2017-06-10T09:51:54.076Z,101226
2017-06-10T09:54:22.262Z,101221
2017-06-10T09:56:50.683Z,101225
2017-06-10T09:59:18.902Z,101224
2017-06-10T10:01:47.103Z,101219
2017-06-10T10:04:15.476Z,101226
2017-06-10T10:06:43.677Z,101215
2017-06-10T10:09:12.669Z,101224
2017-06-10T10:11:41.146Z,101218
2017-06-10T10:14:09.340Z,101208
2017-06-10T10:16:37.506Z,101214
2017-06-10T10:19:05.951Z,101206
2017-06-10T10:21:34.153Z,101218
2017-06-10T10:24:03.206Z,101208
2017-06-10T10:26:31.624Z,101213
2017-06-10T10:29:00.631Z,101209
2017-06-10T10:31:28.873Z,101216
2017-06-10T10:33:57.351Z,101202
2017-06-10T10:36:25.587Z,101205
2017-06-10T10:38:53.783Z,101207
2017-06-10T10:41:22.220Z,101202
2017-06-10T10:43:50.411Z,101197
2017-06-10T10:46:18.596Z,101201
2017-06-10T10:48:46.969Z,101202
2017-06-10T10:51:15.290Z,101210
2017-06-10T10:53:44.275Z,101202
2017-06-10T10:56:12.746Z,101207
2017-06-10T10:58:40.937Z,101208
2017-06-10T11:01:09.143Z,101211
2017-06-10T11:03:37.641Z,101216
2017-06-10T11:06:05.905Z,101210
2017-06-10T11:08:34.290Z,101211
2017-06-10T11:11:02.804Z,101210
2017-06-10T11:13:31.041Z,101210
2017-06-10T11:15:59.280Z,101220
2017-06-10T11:18:28.425Z,101228
2017-06-10T11:20:56.727Z,101227
2017-06-10T11:23:24.991Z,101232
2017-06-10T11:25:53.572Z,101223
2017-06-10T11:28:21.753Z,101229
2017-06-10T11:30:49.965Z,101221
2017-06-10T11:33:18.406Z,101224
2017-06-10T11:35:46.587Z,101229
2017-06-10T11:38:14.773Z,101223
2017-06-10T11:40:43.212Z,101221
2017-06-10T11:43:11.482Z,101207
2017-06-10T11:45:39.756Z,101217
2017-06-10T11:48:08.111Z,101229
2017-06-10T11:50:36.312Z,101223
2017-06-10T11:53:04.562Z,101224
2017-06-10T11:55:32.921Z,101221
2017-06-10T11:58:01.870Z,101216
2017-06-10T12:00:30.071Z,101211
2017-06-10T12:02:59.213Z,101217
2017-06-10T12:05:27.414Z,101222
2017-06-10T12:07:55.768Z,101221
2017-06-10T12:10:24.174Z,101221
2017-06-10T12:12:52.380Z,101218
2017-06-10T12:15:21.325Z,101226
2017-06-10T12:17:49.717Z,101218
2017-06-10T12:20:17.913Z,101223
2017-06-10T12:22:46.121Z,101227
2017-06-10T12:25:14.549Z,101225
2017-06-10T12:27:42.764Z,101228
2017-06-10T12:30:11.002Z,101226
2017-06-10T12:32:39.484Z,101225
2017-06-10T12:35:07.682Z,101227
2017-06-10T12:37:36.642Z,101236
2017-06-10T12:40:05.015Z,101224
2017-06-10T12:42:33.228Z,101221
2017-06-10T12:45:01.402Z,101222
2017-06-10T12:47:29.862Z,101236
2017-06-10T12:49:58.120Z,101218
2017-06-10T12:52:26.379Z,101234
2017-06-10T12:54:54.782Z,101216
2017-06-10T12:57:22.998Z,101221
2017-06-10T12:59:51.250Z,101223
2017-06-10T13:02:19.911Z,101222
2017-06-10T13:04:48.930Z,101224
2017-06-10T13:07:17.887Z,101221
2017-06-10T13:09:46.363Z,101225
2017-06-10T13:12:14.579Z,101230
2017-06-10T13:14:43.506Z,101238
2017-06-10T13:17:12.025Z,101234
2017-06-10T13:19:41.027Z,101232
2017-06-10T13:22:09.349Z,101231
2017-06-10T13:24:37.773Z,101238
2017-06-10T13:27:05.996Z,101234
2017-06-10T13:29:34.214Z,101234
2017-06-10T13:32:02.692Z,101237
2017-06-10T13:34:30.930Z,101239
2017-06-10T13:36:59.262Z,101241
2017-06-10T13:39:27.631Z,101234
2017-06-10T13:41:55.808Z,101232
2017-06-10T13:44:24.018Z,101223
2017-06-10T13:46:52.400Z,101215
2017-06-10T13:49:20.722Z,101220
2017-06-10T13:51:48.889Z,101217
2017-06-10T13:54:17.259Z,101223
2017-06-10T13:56:45.446Z,101222
2017-06-10T13:59:13.785Z,101224
2017-06-10T14:01:42.167Z,101223
2017-06-10T14:04:10.369Z,101215
2017-06-10T14:06:38.583Z,101217
2017-06-10T14:09:06.973Z,101217
2017-06-10T14:11:35.207Z,101216
2017-06-10T14:14:04.169Z,101219
2017-06-10T14:16:32.603Z,101224
2017-06-10T14:19:00.865Z,101221
2017-06-10T14:21:29.814Z,101231
2017-06-10T14:23:58.309Z,101224
2017-06-10T14:26:26.517Z,101233
2017-06-10T14:28:54.823Z,101232
2017-06-10T14:31:23.272Z,101232
2017-06-10T14:33:52.259Z,101224
2017-06-10T14:36:20.498Z,101227
2017-06-10T14:38:49.013Z,101227
2017-06-10T14:41:17.251Z,101230
2017-06-10T14:43:45.614Z,101243
2017-06-10T14:46:14.119Z,101239
2017-06-10T14:48:42.309Z,101240
2017-06-10T14:51:10.514Z,101240
2017-06-10T14:53:39.140Z,101240
2017-06-10T14:56:08.291Z,101243
2017-06-10T14:58:36.512Z,101240
2017-06-10T15:01:04.866Z,101239
2017-06-10T15:03:33.130Z,101234
2017-06-10T15:06:01.483Z,101241
2017-06-10T15:08:30.869Z,101235
2017-06-10T15:10:59.836Z,101237
2017-06-10T15:13:28.088Z,101231
2017-06-10T15:15:56.514Z,101227
2017-06-10T15:18:24.726Z,101234
2017-06-10T15:20:53.074Z,101232
2017-06-10T15:23:22.343Z,101234
2017-06-10T15:25:50.642Z,101226
2017-06-10T15:28:18.929Z,101226
2017-06-10T15:30:47.363Z,101225
2017-06-10T15:33:15.576Z,101228
2017-06-10T15:35:44.536Z,101223
2017-06-10T15:38:13.044Z,101231
2017-06-10T15:40:42.063Z,101226
2017-06-10T15:43:10.286Z,101226
2017-06-10T15:45:39.590Z,101229
2017-06-10T15:48:07.833Z,101226
2017-06-10T15:50:36.053Z,101225
2017-06-10T15:53:05.235Z,101211
2017-06-10T15:55:33.473Z,101224
2017-06-10T15:58:01.674Z,101216
2017-06-10T16:00:30.069Z,101216
2017-06-10T16:02:58.283Z,101228
2017-06-10T16:05:26.487Z,101218
2017-06-10T16:07:54.889Z,101224
2017-06-10T16:10:23.148Z,101224
2017-06-10T16:12:51.327Z,101221
2017-06-10T16:15:19.746Z,101221
2017-06-10T16:17:47.959Z,101214
2017-06-10T16:20:16.174Z,101220
2017-06-10T16:22:44.573Z,101222
2017-06-10T16:25:12.877Z,101228
2017-06-10T16:27:41.083Z,101224
2017-06-10T16:30:09.585Z,101221
2017-06-10T16:32:37.754Z,101225
2017-06-10T16:35:05.938Z,101224
2017-06-10T16:37:35.082Z,101220
2017-06-10T16:40:03.281Z,101223
2017-06-10T16:42:31.473Z,101234
2017-06-10T16:44:59.931Z,101237
2017-06-10T16:47:28.146Z,101228
2017-06-10T16:49:56.317Z,101244
2017-06-10T16:52:25.552Z,101235
2017-06-10T16:54:53.748Z,101239
2017-06-10T16:57:21.947Z,101235
2017-06-10T16:59:51.178Z,101235
2017-06-10T17:02:19.391Z,101233
2017-06-10T17:04:47.597Z,101231
2017-06-10T17:07:16.751Z,101240
2017-06-10T17:09:44.956Z,101230
2017-06-10T17:12:13.165Z,101231
2017-06-10T17:14:41.562Z,101223
2017-06-10T17:17:09.800Z,101233
2017-06-10T17:19:38.735Z,101231
2017-06-10T17:22:07.146Z,101222
2017-06-10T17:24:35.426Z,101219
2017-06-10T17:27:03.618Z,101225
2017-06-10T17:29:32.804Z,101229
2017-06-10T17:32:01.845Z,101231
2017-06-10T17:34:30.048Z,101228
2017-06-10T17:36:58.471Z,101227
2017-06-10T17:39:26.677Z,101222
2017-06-10T17:41:54.935Z,101226
2017-06-10T17:44:23.342Z,101224
2017-06-10T17:46:51.577Z,101230
2017-06-10T17:49:19.820Z,101226
2017-06-10T17:51:48.216Z,101245
2017-06-10T17:54:17.170Z,101243
2017-06-10T17:56:45.395Z,101243
2017-06-10T17:59:13.960Z,101247
2017-06-10T18:01:42.152Z,101243
2017-06-10T18:04:10.374Z,101250
2017-06-10T18:06:38.743Z,101255
2017-06-10T18:09:06.944Z,101256
2017-06-10T18:11:35.144Z,101252
2017-06-10T18:14:03.696Z,101247
2017-06-10T18:16:32.718Z,101248
2017-06-10T18:19:00.939Z,101242
2017-06-10T18:21:29.267Z,101246
2017-06-10T18:23:57.450Z,101236
2017-06-10T18:26:25.694Z,101241
2017-06-10T18:28:54.846Z,101239
2017-06-10T18:31:23.042Z,101247
2017-06-10T18:33:51.282Z,101244
2017-06-10T18:36:19.634Z,101246
2017-06-10T18:38:48.575Z,101251
2017-06-10T18:41:16.915Z,101245
2017-06-10T18:43:45.307Z,101252
2017-06-10T18:46:13.479Z,101246
2017-06-10T18:48:41.652Z,101250
2017-06-10T18:51:10.064Z,101256
2017-06-10T18:53:38.308Z,101263
2017-06-10T18:56:06.529Z,101267
2017-06-10T18:58:35.693Z,101283
2017-06-10T19:01:03.879Z,101293
2017-06-10T19:03:32.123Z,101297
2017-06-10T19:06:00.370Z,101295
2017-06-10T19:08:28.583Z,101297
2017-06-10T19:10:56.859Z,101291
2017-06-10T19:13:25.069Z,101291
2017-06-10T19:15:53.435Z,101286
2017-06-10T19:18:21.613Z,101289
2017-06-10T19:20:49.852Z,101284
2017-06-10T19:23:18.253Z,101283
2017-06-10T19:25:46.451Z,101277
2017-06-10T19:28:14.689Z,101287
2017-06-10T19:30:43.091Z,101282
2017-06-10T19:33:11.357Z,101281
2017-06-10T19:35:39.629Z,101288
2017-06-10T19:38:08.136Z,101285
2017-06-10T19:40:36.460Z,101285
2017-06-10T19:43:04.769Z,101282
2017-06-10T19:45:33.273Z,101287
2017-06-10T19:48:02.255Z,101289
2017-06-10T19:50:30.462Z,101291
2017-06-10T19:52:58.834Z,101287
2017-06-10T19:55:27.046Z,101292
2017-06-10T19:57:55.266Z,101286
2017-06-10T20:00:23.730Z,101280
2017-06-10T20:02:52.666Z,101280
2017-06-10T20:05:20.925Z,101282
2017-06-10T20:07:49.378Z,101285
2017-06-10T20:10:17.612Z,101285
2017-06-10T20:12:45.806Z,101287
2017-06-10T20:15:14.283Z,101293
2017-06-10T20:17:42.505Z,101287
2017-06-10T20:20:11.603Z,101292
2017-06-10T20:22:40.167Z,101293
2017-06-10T20:25:09.170Z,101303
2017-06-10T20:27:37.370Z,101304
2017-06-10T20:30:05.899Z,101308
2017-06-10T20:32:34.117Z,101298
2017-06-10T20:35:02.363Z,101303
2017-06-10T20:37:30.838Z,101306
2017-06-10T20:39:59.084Z,101306
2017-06-10T20:42:27.338Z,101309
2017-06-10T20:44:55.703Z,101305
2017-06-10T20:47:23.907Z,101302
2017-06-10T20:49:52.114Z,101299
2017-06-10T20:52:20.672Z,101310
2017-06-10T20:54:48.879Z,101308
2017-06-10T20:57:17.237Z,101299
2017-06-10T20:59:45.832Z,101295
2017-06-10T21:02:14.063Z,101298
2017-06-10T21:04:42.390Z,101300
2017-06-10T21:07:10.775Z,101301
2017-06-10T21:09:39.005Z,101301
2017-06-10T21:12:07.197Z,101295
2017-06-10T21:14:35.637Z,101297
2017-06-10T21:17:03.834Z,101307
2017-06-10T21:19:32.031Z,101305
2017-06-10T21:22:00.394Z,101299
2017-06-10T21:24:28.622Z,101302
2017-06-10T21:26:56.812Z,101305
2017-06-10T21:29:25.235Z,101306
2017-06-10T21:31:54.203Z,101298
2017-06-10T21:34:22.414Z,101290
2017-06-10T21:36:51.653Z,101295
2017-06-10T21:39:19.906Z,101293
2017-06-10T21:41:48.095Z,101289
2017-06-10T21:44:16.526Z,101290
2017-06-10T21:46:44.758Z,101291
2017-06-10T21:49:12.945Z,101290
2017-06-10T21:51:41.457Z,101283
2017-06-10T21:54:10.420Z,101278
2017-06-10T21:56:38.637Z,101277
2017-06-10T21:59:07.034Z,101277
2017-06-10T22:01:35.226Z,101277
2017-06-10T22:04:03.378Z,101279
2017-06-10T22:06:31.915Z,101280
2017-06-10T22:09:00.172Z,101271
2017-06-10T22:11:28.414Z,101280
2017-06-10T22:13:56.769Z,101275
2017-06-10T22:16:24.969Z,101273
2017-06-10T22:18:53.146Z,101279
2017-06-10T22:21:21.892Z,101277
2017-06-10T22:23:50.082Z,101275
2017-06-10T22:26:18.287Z,101276
2017-06-10T22:28:46.786Z,101278
2017-06-10T22:31:15.026Z,101279
2017-06-10T22:33:43.262Z,101269
2017-06-10T22:36:11.672Z,101275
2017-06-10T22:38:39.850Z,101263
2017-06-10T22:41:08.029Z,101260
2017-06-10T22:43:36.445Z,101257
2017-06-10T22:46:04.633Z,101253
2017-06-10T22:48:33.623Z,101243
2017-06-10T22:51:02.772Z,101248
2017-06-10T22:53:30.991Z,101251
2017-06-10T22:55:59.201Z,101245
2017-06-10T22:58:27.603Z,101253
2017-06-10T23:00:55.790Z,101247
2017-06-10T23:03:23.957Z,101251
2017-06-10T23:05:52.361Z,101248
2017-06-10T23:08:20.602Z,101254
2017-06-10T23:10:48.808Z,101257
2017-06-10T23:13:17.214Z,101254
2017-06-10T23:15:46.154Z,101253
2017-06-10T23:18:14.435Z,101254
2017-06-10T23:20:42.934Z,101252
2017-06-10T23:23:11.141Z,101252
2017-06-10T23:25:39.342Z,101255
2017-06-10T23:28:07.700Z,101252
2017-06-10T23:30:35.882Z,101243
2017-06-10T23:33:04.101Z,101244
2017-06-10T23:35:32.478Z,101239
2017-06-10T23:38:00.656Z,101244
2017-06-10T23:40:28.891Z,101238
2017-06-10T23:42:57.423Z,101231
2017-06-10T23:45:25.646Z,101235
2017-06-10T23:47:53.878Z,101230
2017-06-10T23:50:23.079Z,101219
2017-06-10T23:52:51.305Z,101214
2017-06-10T23:55:19.588Z,101215
2017-06-10T23:57:47.983Z,101219
